sensor_id;sensor_type;location;lat;lon;timestamp;pressure;altitude;pressure_sealevel;temperature;humidity
21781;BME280;52576;53.614;9.894;2023-02-11T00:00:48;102604.50;;;5.07;78.57
21781;BME280;52576;53.614;9.894;2023-02-11T00:02:52;102607.09;;;5.07;78.48
21781;BME280;52576;53.614;9.894;2023-02-11T00:04:55;102602.78;;;5.08;78.61
21781;BME280;52576;53.614;9.894;2023-02-11T00:06:58;102605.38;;;5.08;78.56
21781;BME280;52576;53.614;9.894;2023-02-11T00:09:04;102606.22;;;5.08;78.79
21781;BME280;52576;53.614;9.894;2023-02-11T00:11:11;102607.09;;;5.09;78.84
21781;BME280;52576;53.614;9.894;2023-02-11T00:13:15;102584.56;;;5.09;79.09
21781;BME280;52576;53.614;9.894;2023-02-11T00:15:18;102579.34;;;5.09;78.98
21781;BME280;52576;53.614;9.894;2023-02-11T00:17:21;102581.97;;;5.09;78.98
21781;BME280;52576;53.614;9.894;2023-02-11T00:19:24;102588.00;;;5.10;79.08
21781;BME280;52576;53.614;9.894;2023-02-11T00:21:28;102588.88;;;5.10;79.02
21781;BME280;52576;53.614;9.894;2023-02-11T00:23:31;102578.47;;;5.10;79.19
21781;BME280;52576;53.614;9.894;2023-02-11T00:25:39;102576.72;;;5.13;79.29
21781;BME280;52576;53.614;9.894;2023-02-11T00:27:42;102580.19;;;5.11;79.35
21781;BME280;52576;53.614;9.894;2023-02-11T00:29:46;102578.47;;;5.10;79.42
21781;BME280;52576;53.614;9.894;2023-02-11T00:31:49;102575.00;;;5.11;79.52
21781;BME280;52576;53.614;9.894;2023-02-11T00:33:53;102568.94;;;5.11;79.69
21781;BME280;52576;53.614;9.894;2023-02-11T00:35:56;102575.88;;;5.10;79.92
21781;BME280;52576;53.614;9.894;2023-02-11T00:37:59;102576.75;;;5.09;80.20
21781;BME280;52576;53.614;9.894;2023-02-11T00:40:03;102568.13;;;5.07;80.15
21781;BME280;52576;53.614;9.894;2023-02-11T00:42:10;102571.59;;;5.06;80.68
21781;BME280;52576;53.614;9.894;2023-02-11T00:44:16;102577.69;;;5.04;80.84
21781;BME280;52576;53.614;9.894;2023-02-11T00:46:22;102579.47;;;5.02;80.88
21781;BME280;52576;53.614;9.894;2023-02-11T00:48:25;102560.44;;;5.00;81.25
21781;BME280;52576;53.614;9.894;2023-02-11T00:50:40;102561.28;;;5.00;81.23
21781;BME280;52576;53.614;9.894;2023-02-11T00:52:43;102559.56;;;4.99;81.33
21781;BME280;52576;53.614;9.894;2023-02-11T00:54:46;102575.16;;;4.99;81.63
21781;BME280;52576;53.614;9.894;2023-02-11T00:56:49;102568.25;;;4.98;81.58
21781;BME280;52576;53.614;9.894;2023-02-11T00:58:54;102584.72;;;4.97;82.06
21781;BME280;52576;53.614;9.894;2023-02-11T01:00:57;102572.59;;;4.98;82.42
21781;BME280;52576;53.614;9.894;2023-02-11T01:03:00;102564.81;;;4.96;82.23
21781;BME280;52576;53.614;9.894;2023-02-11T01:05:04;102563.94;;;4.97;82.45
21781;BME280;52576;53.614;9.894;2023-02-11T01:07:07;102561.34;;;4.97;82.42
21781;BME280;52576;53.614;9.894;2023-02-11T01:09:10;102555.25;;;5.00;82.56
21781;BME280;52576;53.614;9.894;2023-02-11T01:11:15;102537.03;;;5.01;82.62
21781;BME280;52576;53.614;9.894;2023-02-11T01:13:19;102541.34;;;5.02;82.76
21781;BME280;52576;53.614;9.894;2023-02-11T01:15:24;102530.94;;;5.02;82.89
21781;BME280;52576;53.614;9.894;2023-02-11T01:17:27;102541.31;;;5.04;83.07
21781;BME280;52576;53.614;9.894;2023-02-11T01:19:30;102540.47;;;5.03;82.98
21781;BME280;52576;53.614;9.894;2023-02-11T01:21:33;102540.44;;;5.05;83.00
21781;BME280;52576;53.614;9.894;2023-02-11T01:23:36;102540.41;;;5.06;83.07
21781;BME280;52576;53.614;9.894;2023-02-11T01:25:39;102530.84;;;5.08;83.05
21781;BME280;52576;53.614;9.894;2023-02-11T01:27:42;102540.38;;;5.09;83.13
21781;BME280;52576;53.614;9.894;2023-02-11T01:29:45;102525.63;;;5.11;83.23
21781;BME280;52576;53.614;9.894;2023-02-11T01:31:50;102531.66;;;5.14;83.37
21781;BME280;52576;53.614;9.894;2023-02-11T01:33:53;102528.16;;;5.15;83.29
21781;BME280;52576;53.614;9.894;2023-02-11T01:35:59;102535.09;;;5.16;83.18
21781;BME280;52576;53.614;9.894;2023-02-11T01:38:03;102531.59;;;5.17;83.32
21781;BME280;52576;53.614;9.894;2023-02-11T01:40:11;102528.13;;;5.18;83.51
21781;BME280;52576;53.614;9.894;2023-02-11T01:42:16;102522.03;;;5.19;83.52
21781;BME280;52576;53.614;9.894;2023-02-11T01:44:24;102530.69;;;5.19;83.54
21781;BME280;52576;53.614;9.894;2023-02-11T01:46:30;102532.38;;;5.20;83.52
21781;BME280;52576;53.614;9.894;2023-02-11T01:48:38;102534.97;;;5.20;83.78
21781;BME280;52576;53.614;9.894;2023-02-11T01:50:44;102529.78;;;5.20;83.70
21781;BME280;52576;53.614;9.894;2023-02-11T01:52:49;102520.25;;;5.21;83.94
21781;BME280;52576;53.614;9.894;2023-02-11T01:54:54;102531.56;;;5.20;83.97
21781;BME280;52576;53.614;9.894;2023-02-11T01:57:18;102525.53;;;5.18;84.09
21781;BME280;52576;53.614;9.894;2023-02-11T01:59:30;102521.19;;;5.18;84.33
21781;BME280;52576;53.614;9.894;2023-02-11T02:01:34;102531.59;;;5.17;84.17
21781;BME280;52576;53.614;9.894;2023-02-11T02:03:44;102526.41;;;5.17;84.41
21781;BME280;52576;53.614;9.894;2023-02-11T02:05:53;102522.97;;;5.15;84.62
21781;BME280;52576;53.614;9.894;2023-02-11T02:08:02;102525.56;;;5.15;84.69
21781;BME280;52576;53.614;9.894;2023-02-11T02:10:11;102522.97;;;5.15;84.88
21781;BME280;52576;53.614;9.894;2023-02-11T02:12:15;102509.97;;;5.15;84.99
21781;BME280;52576;53.614;9.894;2023-02-11T02:14:19;102507.38;;;5.15;85.08
21781;BME280;52576;53.614;9.894;2023-02-11T02:16:26;102500.41;;;5.17;85.33
21781;BME280;52576;53.614;9.894;2023-02-11T02:18:39;102486.53;;;5.18;85.07
21781;BME280;52576;53.614;9.894;2023-02-11T02:23:48;102483.84;;;5.21;85.29
21781;BME280;52576;53.614;9.894;2023-02-11T02:26:28;102482.94;;;5.23;85.15
21781;BME280;52576;53.614;9.894;2023-02-11T02:29:03;102496.75;;;5.27;85.23
21781;BME280;52576;53.614;9.894;2023-02-11T02:31:30;102491.50;;;5.30;85.19
21781;BME280;52576;53.614;9.894;2023-02-11T02:33:41;102478.47;;;5.31;85.30
21781;BME280;52576;53.614;9.894;2023-02-11T02:35:48;102493.19;;;5.32;85.04
21781;BME280;52576;53.614;9.894;2023-02-11T02:37:58;102481.06;;;5.33;85.01
21781;BME280;52576;53.614;9.894;2023-02-11T02:40:08;102477.53;;;5.35;84.95
21781;BME280;52576;53.614;9.894;2023-02-11T02:42:13;102466.25;;;5.36;85.04
21781;BME280;52576;53.614;9.894;2023-02-11T02:44:18;102470.56;;;5.39;85.12
21781;BME280;52576;53.614;9.894;2023-02-11T02:46:23;102474.03;;;5.38;85.19
21781;BME280;52576;53.614;9.894;2023-02-11T02:48:29;102475.75;;;5.39;85.16
21781;BME280;52576;53.614;9.894;2023-02-11T02:50:35;102471.41;;;5.39;85.04
21781;BME280;52576;53.614;9.894;2023-02-11T02:52:46;102472.25;;;5.40;85.27
21781;BME280;52576;53.614;9.894;2023-02-11T02:55:10;102467.03;;;5.41;85.18
21781;BME280;52576;53.614;9.894;2023-02-11T02:57:27;102463.59;;;5.41;84.97
21781;BME280;52576;53.614;9.894;2023-02-11T02:59:41;102453.19;;;5.41;85.13
21781;BME280;52576;53.614;9.894;2023-02-11T03:01:52;102454.06;;;5.40;85.21
21781;BME280;52576;53.614;9.894;2023-02-11T03:04:04;102460.16;;;5.39;85.47
21781;BME280;52576;53.614;9.894;2023-02-11T03:06:15;102459.28;;;5.38;85.55
21781;BME280;52576;53.614;9.894;2023-02-11T03:08:25;102463.63;;;5.38;85.55
21781;BME280;52576;53.614;9.894;2023-02-11T03:10:33;102469.72;;;5.37;85.68
21781;BME280;52576;53.614;9.894;2023-02-11T03:12:38;102468.88;;;5.35;85.96
21781;BME280;52576;53.614;9.894;2023-02-11T03:14:43;102472.38;;;5.34;85.79
21781;BME280;52576;53.614;9.894;2023-02-11T03:16:48;102473.25;;;5.33;86.12
21781;BME280;52576;53.614;9.894;2023-02-11T03:18:58;102475.00;;;5.32;86.10
21781;BME280;52576;53.614;9.894;2023-02-11T03:21:04;102464.59;;;5.32;86.22
21781;BME280;52576;53.614;9.894;2023-02-11T03:23:15;102460.25;;;5.33;86.23
21781;BME280;52576;53.614;9.894;2023-02-11T03:25:26;102462.84;;;5.33;86.51
21781;BME280;52576;53.614;9.894;2023-02-11T03:27:33;102470.66;;;5.33;86.74
21781;BME280;52576;53.614;9.894;2023-02-11T03:29:42;102467.16;;;5.34;86.69
21781;BME280;52576;53.614;9.894;2023-02-11T03:31:53;102446.38;;;5.34;86.95
21781;BME280;52576;53.614;9.894;2023-02-11T03:34:02;102445.50;;;5.33;86.80
21781;BME280;52576;53.614;9.894;2023-02-11T03:36:08;102437.69;;;5.35;86.91
21781;BME280;52576;53.614;9.894;2023-02-11T03:38:20;102433.31;;;5.37;87.08
21781;BME280;52576;53.614;9.894;2023-02-11T03:40:26;102423.75;;;5.39;87.02
21781;BME280;52576;53.614;9.894;2023-02-11T03:42:34;102436.72;;;5.40;86.99
21781;BME280;52576;53.614;9.894;2023-02-11T03:44:42;102430.59;;;5.43;87.05
21781;BME280;52576;53.614;9.894;2023-02-11T03:46:49;102425.38;;;5.44;87.03
21781;BME280;52576;53.614;9.894;2023-02-11T03:48:56;102432.22;;;5.47;86.95
21781;BME280;52576;53.614;9.894;2023-02-11T03:51:04;102426.97;;;5.50;87.02
21781;BME280;52576;53.614;9.894;2023-02-11T03:53:09;102413.09;;;5.51;87.00
21781;BME280;52576;53.614;9.894;2023-02-11T03:55:18;102426.88;;;5.56;87.03
21781;BME280;52576;53.614;9.894;2023-02-11T03:57:22;102418.19;;;5.57;86.90
21781;BME280;52576;53.614;9.894;2023-02-11T03:59:26;102420.72;;;5.60;86.77
21781;BME280;52576;53.614;9.894;2023-02-11T04:01:29;102423.25;;;5.63;86.61
21781;BME280;52576;53.614;9.894;2023-02-11T04:03:32;102427.56;;;5.66;86.48
21781;BME280;52576;53.614;9.894;2023-02-11T04:05:36;102436.19;;;5.68;86.50
21781;BME280;52576;53.614;9.894;2023-02-11T04:07:39;102434.38;;;5.71;86.41
21781;BME280;52576;53.614;9.894;2023-02-11T04:09:43;102429.97;;;5.73;86.33
21781;BME280;52576;53.614;9.894;2023-02-11T04:11:47;102435.97;;;5.77;86.15
21781;BME280;52576;53.614;9.894;2023-02-11T04:13:50;102436.78;;;5.80;86.18
21781;BME280;52576;53.614;9.894;2023-02-11T04:15:53;102440.22;;;5.83;86.00
21781;BME280;52576;53.614;9.894;2023-02-11T04:17:56;102428.03;;;5.85;85.74
21781;BME280;52576;53.614;9.894;2023-02-11T04:19:59;102437.50;;;5.87;85.71
21781;BME280;52576;53.614;9.894;2023-02-11T04:22:02;102440.13;;;5.89;85.68
21781;BME280;52576;53.614;9.894;2023-02-11T04:24:06;102425.34;;;5.91;85.44
21781;BME280;52576;53.614;9.894;2023-02-11T04:26:09;102436.56;;;5.93;85.53
21781;BME280;52576;53.614;9.894;2023-02-11T04:28:14;102435.69;;;5.94;85.26
21781;BME280;52576;53.614;9.894;2023-02-11T04:30:18;102431.31;;;5.96;85.18
21781;BME280;52576;53.614;9.894;2023-02-11T04:32:21;102439.91;;;5.98;85.11
21781;BME280;52576;53.614;9.894;2023-02-11T04:34:24;102443.34;;;6.00;85.03
21781;BME280;52576;53.614;9.894;2023-02-11T04:36:27;102445.91;;;6.01;84.84
21781;BME280;52576;53.614;9.894;2023-02-11T04:38:30;102445.00;;;6.04;84.67
21781;BME280;52576;53.614;9.894;2023-02-11T04:40:33;102456.19;;;6.07;84.76
21781;BME280;52576;53.614;9.894;2023-02-11T04:42:36;102443.16;;;6.09;84.54
21781;BME280;52576;53.614;9.894;2023-02-11T04:44:41;102450.06;;;6.10;84.59
21781;BME280;52576;53.614;9.894;2023-02-11T04:46:44;102453.50;;;6.12;84.53
21781;BME280;52576;53.614;9.894;2023-02-11T04:48:47;102450.00;;;6.13;84.31
21781;BME280;52576;53.614;9.894;2023-02-11T04:50:50;102447.38;;;6.15;84.38
21781;BME280;52576;53.614;9.894;2023-02-11T04:52:53;102445.63;;;6.15;84.28
21781;BME280;52576;53.614;9.894;2023-02-11T04:54:56;102447.38;;;6.15;84.37
21781;BME280;52576;53.614;9.894;2023-02-11T04:56:59;102449.94;;;6.16;84.35
21781;BME280;52576;53.614;9.894;2023-02-11T04:59:03;102443.03;;;6.15;84.42
21781;BME280;52576;53.614;9.894;2023-02-11T05:01:09;102428.28;;;6.14;84.34
21781;BME280;52576;53.614;9.894;2023-02-11T05:03:13;102438.72;;;6.14;84.34
21781;BME280;52576;53.614;9.894;2023-02-11T05:05:16;102447.41;;;6.13;84.61
21781;BME280;52576;53.614;9.894;2023-02-11T05:07:19;102452.66;;;6.11;84.72
21781;BME280;52576;53.614;9.894;2023-02-11T05:09:22;102450.06;;;6.10;84.90
21781;BME280;52576;53.614;9.894;2023-02-11T05:11:26;102451.84;;;6.08;85.07
21781;BME280;52576;53.614;9.894;2023-02-11T05:13:29;102457.09;;;6.06;85.19
21781;BME280;52576;53.614;9.894;2023-02-11T05:15:32;102462.31;;;6.05;85.41
21781;BME280;52576;53.614;9.894;2023-02-11T05:17:37;102458.91;;;6.03;85.52
21781;BME280;52576;53.614;9.894;2023-02-11T05:19:40;102457.19;;;6.02;85.72
21781;BME280;52576;53.614;9.894;2023-02-11T05:21:43;102455.47;;;6.01;85.83
21781;BME280;52576;53.614;9.894;2023-02-11T05:24:03;102457.25;;;5.99;86.07
21781;BME280;52576;53.614;9.894;2023-02-11T05:26:07;102445.13;;;5.98;86.10
21781;BME280;52576;53.614;9.894;2023-02-11T05:28:10;102438.22;;;5.97;86.43
21781;BME280;52576;53.614;9.894;2023-02-11T05:30:14;102457.34;;;5.96;86.61
21781;BME280;52576;53.614;9.894;2023-02-11T05:32:17;102447.81;;;5.95;86.64
21781;BME280;52576;53.614;9.894;2023-02-11T05:34:21;102446.97;;;5.93;86.65
21781;BME280;52576;53.614;9.894;2023-02-11T05:36:24;102441.78;;;5.93;86.75
21781;BME280;52576;53.614;9.894;2023-02-11T05:38:28;102434.84;;;5.92;86.99
21781;BME280;52576;53.614;9.894;2023-02-11T05:40:31;102436.63;;;5.90;87.17
21781;BME280;52576;53.614;9.894;2023-02-11T05:42:35;102422.75;;;5.89;87.20
21781;BME280;52576;53.614;9.894;2023-02-11T05:44:38;102424.50;;;5.89;87.45
21781;BME280;52576;53.614;9.894;2023-02-11T05:46:41;102414.97;;;5.88;87.63
21781;BME280;52576;53.614;9.894;2023-02-11T05:48:44;102418.44;;;5.87;87.79
21781;BME280;52576;53.614;9.894;2023-02-11T05:50:49;102405.44;;;5.87;87.90
21781;BME280;52576;53.614;9.894;2023-02-11T05:52:52;102415.84;;;5.87;87.92
21781;BME280;52576;53.614;9.894;2023-02-11T05:54:55;102408.94;;;5.86;88.11
21781;BME280;52576;53.614;9.894;2023-02-11T05:56:58;102431.47;;;5.87;88.22
21781;BME280;52576;53.614;9.894;2023-02-11T05:59:01;102426.25;;;5.87;88.37
21781;BME280;52576;53.614;9.894;2023-02-11T06:01:04;102410.63;;;5.87;88.21
21781;BME280;52576;53.614;9.894;2023-02-11T06:03:07;102433.16;;;5.88;88.46
21781;BME280;52576;53.614;9.894;2023-02-11T06:05:10;102425.38;;;5.89;88.53
21781;BME280;52576;53.614;9.894;2023-02-11T06:07:15;102422.72;;;5.91;88.56
21781;BME280;52576;53.614;9.894;2023-02-11T06:09:18;102419.25;;;5.92;88.58
21781;BME280;52576;53.614;9.894;2023-02-11T06:11:21;102401.84;;;5.94;88.67
21781;BME280;52576;53.614;9.894;2023-02-11T06:13:24;102381.88;;;5.94;88.57
21781;BME280;52576;53.614;9.894;2023-02-11T06:15:28;102368.84;;;5.96;88.76
21781;BME280;52576;53.614;9.894;2023-02-11T06:17:31;102391.38;;;5.97;88.66
21781;BME280;52576;53.614;9.894;2023-02-11T06:19:34;102393.06;;;5.98;88.89
21781;BME280;52576;53.614;9.894;2023-02-11T06:21:38;102399.97;;;5.99;88.79
21781;BME280;52576;53.614;9.894;2023-02-11T06:23:46;102426.84;;;6.01;88.77
21781;BME280;52576;53.614;9.894;2023-02-11T06:25:50;102429.38;;;6.04;88.83
21781;BME280;52576;53.614;9.894;2023-02-11T06:27:54;102425.88;;;6.05;88.88
21781;BME280;52576;53.614;9.894;2023-02-11T06:29:57;102429.31;;;6.07;88.75
21781;BME280;52576;53.614;9.894;2023-02-11T06:32:00;102438.81;;;6.09;88.81
21781;BME280;52576;53.614;9.894;2023-02-11T06:34:04;102457.00;;;6.11;88.77
21781;BME280;52576;53.614;9.894;2023-02-11T06:36:12;102458.72;;;6.12;88.96
21781;BME280;52576;53.614;9.894;2023-02-11T06:38:15;102455.19;;;6.15;88.91
21781;BME280;52576;53.614;9.894;2023-02-11T06:40:20;102465.56;;;6.16;88.93
21781;BME280;52576;53.614;9.894;2023-02-11T06:42:23;102455.16;;;6.16;88.75
21781;BME280;52576;53.614;9.894;2023-02-11T06:44:26;102463.78;;;6.18;88.75
21781;BME280;52576;53.614;9.894;2023-02-11T06:46:29;102462.06;;;6.19;88.76
21781;BME280;52576;53.614;9.894;2023-02-11T06:48:33;102462.94;;;6.18;88.90
21781;BME280;52576;53.614;9.894;2023-02-11T06:50:37;102458.59;;;6.18;88.95
21781;BME280;52576;53.614;9.894;2023-02-11T06:52:40;102463.78;;;6.18;89.05
21781;BME280;52576;53.614;9.894;2023-02-11T06:54:43;102466.41;;;6.18;88.91
21781;BME280;52576;53.614;9.894;2023-02-11T06:56:48;102457.72;;;6.18;88.97
21781;BME280;52576;53.614;9.894;2023-02-11T06:58:52;102469.06;;;6.15;89.01
21781;BME280;52576;53.614;9.894;2023-02-11T07:00:56;102465.56;;;6.16;89.07
21781;BME280;52576;53.614;9.894;2023-02-11T07:02:59;102459.50;;;6.16;89.06
21781;BME280;52576;53.614;9.894;2023-02-11T07:05:04;102462.97;;;6.16;89.25
21781;BME280;52576;53.614;9.894;2023-02-11T07:07:07;102473.38;;;6.16;89.15
21781;BME280;52576;53.614;9.894;2023-02-11T07:09:12;102472.56;;;6.14;89.18
21781;BME280;52576;53.614;9.894;2023-02-11T07:11:17;102479.47;;;6.15;89.32
21781;BME280;52576;53.614;9.894;2023-02-11T07:13:22;102467.34;;;6.14;89.42
21781;BME280;52576;53.614;9.894;2023-02-11T07:15:25;102482.97;;;6.14;89.50
21781;BME280;52576;53.614;9.894;2023-02-11T07:17:29;102480.38;;;6.14;89.57
21781;BME280;52576;53.614;9.894;2023-02-11T07:19:32;102482.09;;;6.13;89.41
21781;BME280;52576;53.614;9.894;2023-02-11T07:21:35;102495.97;;;6.14;89.42
21781;BME280;52576;53.614;9.894;2023-02-11T07:23:38;102491.66;;;6.13;89.63
21781;BME280;52576;53.614;9.894;2023-02-11T07:25:42;102481.25;;;6.13;89.52
21781;BME280;52576;53.614;9.894;2023-02-11T07:27:45;102473.44;;;6.13;89.66
21781;BME280;52576;53.614;9.894;2023-02-11T07:29:49;102486.47;;;6.13;89.76
21781;BME280;52576;53.614;9.894;2023-02-11T07:31:52;102480.38;;;6.14;89.88
21781;BME280;52576;53.614;9.894;2023-02-11T07:33:57;102482.97;;;6.14;89.78
21781;BME280;52576;53.614;9.894;2023-02-11T07:36:01;102497.69;;;6.15;89.79
21781;BME280;52576;53.614;9.894;2023-02-11T07:38:04;102498.56;;;6.16;89.84
21781;BME280;52576;53.614;9.894;2023-02-11T07:40:09;102507.22;;;6.16;89.84
21781;BME280;52576;53.614;9.894;2023-02-11T07:42:12;102496.81;;;6.16;89.98
21781;BME280;52576;53.614;9.894;2023-02-11T07:44:15;102494.19;;;6.18;89.78
21781;BME280;52576;53.614;9.894;2023-02-11T07:46:22;102501.09;;;6.19;90.00
21781;BME280;52576;53.614;9.894;2023-02-11T07:48:26;102506.31;;;6.19;90.01
21781;BME280;52576;53.614;9.894;2023-02-11T07:50:29;102510.66;;;6.18;90.05
21781;BME280;52576;53.614;9.894;2023-02-11T07:52:32;102522.78;;;6.19;90.16
21781;BME280;52576;53.614;9.894;2023-02-11T07:54:35;102520.16;;;6.21;90.34
21781;BME280;52576;53.614;9.894;2023-02-11T07:56:38;102522.72;;;6.22;90.23
21781;BME280;52576;53.614;9.894;2023-02-11T07:58:42;102541.81;;;6.23;90.19
21781;BME280;52576;53.614;9.894;2023-02-11T08:00:45;102538.28;;;6.24;90.15
21781;BME280;52576;53.614;9.894;2023-02-11T08:02:49;102535.69;;;6.24;90.29
21781;BME280;52576;53.614;9.894;2023-02-11T08:04:52;102529.56;;;6.26;90.26
21781;BME280;52576;53.614;9.894;2023-02-11T08:06:56;102529.56;;;6.26;90.24
21781;BME280;52576;53.614;9.894;2023-02-11T08:09:03;102536.47;;;6.27;90.29
21781;BME280;52576;53.614;9.894;2023-02-11T08:11:06;102527.78;;;6.28;90.26
21781;BME280;52576;53.614;9.894;2023-02-11T08:13:10;102536.41;;;6.30;90.44
21781;BME280;52576;53.614;9.894;2023-02-11T08:15:13;102534.69;;;6.31;90.39
21781;BME280;52576;53.614;9.894;2023-02-11T08:17:16;102532.94;;;6.31;90.37
21781;BME280;52576;53.614;9.894;2023-02-11T08:19:21;102531.16;;;6.33;90.36
21781;BME280;52576;53.614;9.894;2023-02-11T08:21:25;102543.28;;;6.34;90.50
21781;BME280;52576;53.614;9.894;2023-02-11T08:23:28;102536.31;;;6.36;90.35
21781;BME280;52576;53.614;9.894;2023-02-11T08:25:31;102539.72;;;6.38;90.52
21781;BME280;52576;53.614;9.894;2023-02-11T08:27:34;102537.97;;;6.39;90.56
21781;BME280;52576;53.614;9.894;2023-02-11T08:29:37;102532.78;;;6.39;90.45
21781;BME280;52576;53.614;9.894;2023-02-11T08:31:42;102548.38;;;6.40;90.58
21781;BME280;52576;53.614;9.894;2023-02-11T08:33:46;102557.91;;;6.41;90.44
21781;BME280;52576;53.614;9.894;2023-02-11T08:35:50;102567.44;;;6.42;90.49
21781;BME280;52576;53.614;9.894;2023-02-11T08:37:53;102570.00;;;6.44;90.49
21781;BME280;52576;53.614;9.894;2023-02-11T08:39:56;102576.06;;;6.44;90.43
21781;BME280;52576;53.614;9.894;2023-02-11T08:42:00;102589.06;;;6.46;90.41
21781;BME280;52576;53.614;9.894;2023-02-11T08:44:03;102576.91;;;6.46;90.56
21781;BME280;52576;53.614;9.894;2023-02-11T08:46:06;102583.81;;;6.49;90.58
21781;BME280;52576;53.614;9.894;2023-02-11T08:48:09;102583.81;;;6.49;90.48
21781;BME280;52576;53.614;9.894;2023-02-11T08:50:12;102584.66;;;6.50;90.75
21781;BME280;52576;53.614;9.894;2023-02-11T08:52:17;102582.06;;;6.50;90.54
21781;BME280;52576;53.614;9.894;2023-02-11T08:54:20;102583.75;;;6.51;90.56
21781;BME280;52576;53.614;9.894;2023-02-11T08:56:24;102588.06;;;6.52;90.52
21781;BME280;52576;53.614;9.894;2023-02-11T08:58:27;102592.38;;;6.53;90.67
21781;BME280;52576;53.614;9.894;2023-02-11T09:00:30;102587.16;;;6.53;90.51
21781;BME280;52576;53.614;9.894;2023-02-11T09:02:33;102586.28;;;6.54;90.50
21781;BME280;52576;53.614;9.894;2023-02-11T09:04:37;102591.50;;;6.54;90.48
21781;BME280;52576;53.614;9.894;2023-02-11T09:06:40;102580.22;;;6.53;90.53
21781;BME280;52576;53.614;9.894;2023-02-11T09:08:46;102588.84;;;6.55;90.59
21781;BME280;52576;53.614;9.894;2023-02-11T09:10:50;102585.38;;;6.56;90.42
21781;BME280;52576;53.614;9.894;2023-02-11T09:12:54;102597.50;;;6.57;90.53
21781;BME280;52576;53.614;9.894;2023-02-11T09:14:57;102582.72;;;6.58;90.48
21781;BME280;52576;53.614;9.894;2023-02-11T09:17:00;102580.94;;;6.60;90.58
21781;BME280;52576;53.614;9.894;2023-02-11T09:19:04;102593.97;;;6.60;90.48
21781;BME280;52576;53.614;9.894;2023-02-11T09:21:08;102591.38;;;6.60;90.49
21781;BME280;52576;53.614;9.894;2023-02-11T09:23:11;102594.81;;;6.62;90.55
21781;BME280;52576;53.614;9.894;2023-02-11T09:25:16;102601.72;;;6.63;90.47
21781;BME280;52576;53.614;9.894;2023-02-11T09:27:19;102588.69;;;6.63;90.62
21781;BME280;52576;53.614;9.894;2023-02-11T09:29:22;102597.38;;;6.63;90.53
21781;BME280;52576;53.614;9.894;2023-02-11T09:31:26;102597.34;;;6.65;90.63
21781;BME280;52576;53.614;9.894;2023-02-11T09:33:30;102585.16;;;6.67;90.48
21781;BME280;52576;53.614;9.894;2023-02-11T09:35:33;102591.19;;;6.69;90.46
21781;BME280;52576;53.614;9.894;2023-02-11T09:37:36;102599.81;;;6.71;90.63
21781;BME280;52576;53.614;9.894;2023-02-11T09:39:40;102595.44;;;6.73;90.64
21781;BME280;52576;53.614;9.894;2023-02-11T09:42:18;102612.75;;;6.75;90.49
21781;BME280;52576;53.614;9.894;2023-02-11T09:44:30;102610.06;;;6.78;90.56
21781;BME280;52576;53.614;9.894;2023-02-11T09:46:36;102604.81;;;6.80;90.45
21781;BME280;52576;53.614;9.894;2023-02-11T09:48:44;102609.06;;;6.84;90.41
21781;BME280;52576;53.614;9.894;2023-02-11T09:50:49;102602.91;;;6.88;90.50
21781;BME280;52576;53.614;9.894;2023-02-11T09:52:57;102599.34;;;6.92;90.26
21781;BME280;52576;53.614;9.894;2023-02-11T09:55:03;102600.19;;;6.94;90.30
21781;BME280;52576;53.614;9.894;2023-02-11T09:57:09;102604.44;;;6.98;90.28
21781;BME280;52576;53.614;9.894;2023-02-11T09:59:30;102599.97;;;7.02;90.20
21781;BME280;52576;53.614;9.894;2023-02-11T10:01:37;102621.63;;;7.05;90.13
21781;BME280;52576;53.614;9.894;2023-02-11T10:03:58;102622.41;;;7.09;90.19
21781;BME280;52576;53.614;9.894;2023-02-11T10:06:13;102616.28;;;7.11;90.02
21781;BME280;52576;53.614;9.894;2023-02-11T10:08:29;102622.31;;;7.13;90.05
21781;BME280;52576;53.614;9.894;2023-02-11T10:10:46;102624.03;;;7.14;89.97
21781;BME280;52576;53.614;9.894;2023-02-11T10:13:05;102621.44;;;7.14;89.90
21781;BME280;52576;53.614;9.894;2023-02-11T10:15:21;102623.16;;;7.15;89.83
21781;BME280;52576;53.614;9.894;2023-02-11T10:17:35;102635.28;;;7.17;89.63
21781;BME280;52576;53.614;9.894;2023-02-11T10:19:48;102636.16;;;7.17;89.73
21781;BME280;52576;53.614;9.894;2023-02-11T10:22:04;102633.53;;;7.17;89.58
21781;BME280;52576;53.614;9.894;2023-02-11T10:24:12;102643.94;;;7.19;89.36
21781;BME280;52576;53.614;9.894;2023-02-11T10:26:17;102649.16;;;7.19;89.49
21781;BME280;52576;53.614;9.894;2023-02-11T10:28:23;102643.13;;;7.17;89.34
21781;BME280;52576;53.614;9.894;2023-02-11T10:30:31;102637.91;;;7.17;89.45
21781;BME280;52576;53.614;9.894;2023-02-11T10:32:40;102649.22;;;7.15;89.44
21781;BME280;52576;53.614;9.894;2023-02-11T10:34:46;102651.00;;;7.13;89.39
21781;BME280;52576;53.614;9.894;2023-02-11T10:36:49;102649.28;;;7.12;89.34
21781;BME280;52576;53.614;9.894;2023-02-11T10:38:52;102651.06;;;7.10;89.45
21781;BME280;52576;53.614;9.894;2023-02-11T10:40:55;102659.78;;;7.09;89.48
21781;BME280;52576;53.614;9.894;2023-02-11T10:43:02;102647.63;;;7.08;89.40
21781;BME280;52576;53.614;9.894;2023-02-11T10:45:09;102656.34;;;7.07;89.60
21781;BME280;52576;53.614;9.894;2023-02-11T10:47:23;102644.19;;;7.06;89.61
21781;BME280;52576;53.614;9.894;2023-02-11T10:49:39;102645.91;;;7.07;89.79
21781;BME280;52576;53.614;9.894;2023-02-11T10:51:42;102644.19;;;7.06;89.70
21781;BME280;52576;53.614;9.894;2023-02-11T10:53:46;102643.31;;;7.07;89.89
21781;BME280;52576;53.614;9.894;2023-02-11T10:55:52;102626.78;;;7.08;90.06
21781;BME280;52576;53.614;9.894;2023-02-11T10:57:58;102640.63;;;7.10;89.94
21781;BME280;52576;53.614;9.894;2023-02-11T11:00:07;102625.00;;;7.10;89.84
21781;BME280;52576;53.614;9.894;2023-02-11T11:02:26;102616.28;;;7.11;90.09
21781;BME280;52576;53.614;9.894;2023-02-11T11:04:40;102625.81;;;7.12;90.14
21781;BME280;52576;53.614;9.894;2023-02-11T11:06:44;102632.75;;;7.13;90.13
21781;BME280;52576;53.614;9.894;2023-02-11T11:08:49;102630.16;;;7.13;90.06